Time;durP1;ratioP1;P1;durP2;ratioP2;P2;SDS_P1;SDS_P2;PMS_P1;PMS_P2;Temp;Humidity;BMP_temperature;BMP_pressure;BME280_temperature;BME280_humidity;BME280_pressure;Samples;Min_cycle;Max_cycle;Signal;HPM_P1;HPM_P2
2023/08/26 00:02:21;;;;;;;6.32;5.32;;;;;;;;;;5032202;28;20210;-35
2023/08/26 00:04:48;;;;;;;7.10;4.78;;;;;;;;;;5032023;28;20209;-34
2023/08/26 00:07:15;;;;;;;8.77;6.13;;;;;;;;;;5030125;28;20730;-35
2023/08/26 00:09:42;;;;;;;9.68;5.63;;;;;;;;;;5033122;28;20199;-35
2023/08/26 00:12:11;;;;;;;8.65;6.07;;;;;;;;;;5032897;28;20219;-33
2023/08/26 00:14:38;;;;;;;11.20;5.30;;;;;;;;;;5030583;28;20195;-35
2023/08/26 00:17:05;;;;;;;8.20;6.10;;;;;;;;;;5028517;28;20211;-34
2023/08/26 00:19:32;;;;;;;8.98;6.40;;;;;;;;;;5030837;28;20195;-33
2023/08/26 00:22:00;;;;;;;6.00;5.22;;;;;;;;;;5024411;28;20228;-35
2023/08/26 00:24:27;;;;;;;7.03;5.75;;;;;;;;;;5030140;28;20205;-35
2023/08/26 00:26:54;;;;;;;7.32;5.63;;;;;;;;;;5030664;28;20201;-33
2023/08/26 00:29:23;;;;;;;8.07;5.75;;;;;;;;;;5030409;28;20206;-33
2023/08/26 00:31:50;;;;;;;7.05;5.85;;;;;;;;;;5023727;28;20239;-33
2023/08/26 00:34:17;;;;;;;7.40;5.68;;;;;;;;;;5030938;28;20212;-32
2023/08/26 00:36:44;;;;;;;7.05;5.60;;;;;;;;;;5029738;28;20285;-35
2023/08/26 00:39:11;;;;;;;6.07;4.93;;;;;;;;;;5033554;28;20202;-32
2023/08/26 00:41:39;;;;;;;6.85;5.00;;;;;;;;;;5030383;28;20214;-33
2023/08/26 00:44:06;;;;;;;6.32;5.10;;;;;;;;;;5031094;28;20674;-34
2023/08/26 00:46:35;;;;;;;7.72;5.10;;;;;;;;;;5029313;28;20195;-35
2023/08/26 00:49:02;;;;;;;5.70;4.75;;;;;;;;;;5032731;28;20218;-36
2023/08/26 00:51:30;;;;;;;5.22;4.70;;;;;;;;;;5027518;28;20227;-34
2023/08/26 00:53:57;;;;;;;6.13;4.95;;;;;;;;;;5030396;28;20283;-33
2023/08/26 00:56:24;;;;;;;9.40;4.90;;;;;;;;;;5030274;28;20202;-35
2023/08/26 00:58:52;;;;;;;7.97;4.45;;;;;;;;;;5031108;28;20205;-36
2023/08/26 01:01:19;;;;;;;6.55;4.43;;;;;;;;;;5022879;28;20214;-35
2023/08/26 01:03:47;;;;;;;6.22;4.25;;;;;;;;;;5034327;28;20284;-31
2023/08/26 01:06:15;;;;;;;5.25;4.15;;;;;;;;;;5028121;28;20206;-33
2023/08/26 01:11:13;;;;;;;4.25;3.83;;;;;;;;;;5049160;28;20323;-31
2023/08/26 01:13:43;;;;;;;6.75;4.63;;;;;;;;;;5050366;28;20251;-33
2023/08/26 01:16:10;;;;;;;4.95;4.28;;;;;;;;;;5050938;28;20359;-29
2023/08/26 01:18:37;;;;;;;8.60;4.38;;;;;;;;;;5052347;28;20196;-35
2023/08/26 01:21:06;;;;;;;6.15;4.20;;;;;;;;;;5052542;28;20398;-32
2023/08/26 01:23:38;;;;;;;6.57;3.88;;;;;;;;;;5052792;28;20197;-29
2023/08/26 01:26:05;;;;;;;3.90;3.60;;;;;;;;;;5051649;28;20211;-35
2023/08/26 01:28:32;;;;;;;6.57;4.70;;;;;;;;;;5052914;28;20223;-32
2023/08/26 01:31:01;;;;;;;6.00;4.00;;;;;;;;;;5052440;28;20222;-33
2023/08/26 01:33:30;;;;;;;5.30;3.55;;;;;;;;;;5052181;28;20212;-31
2023/08/26 01:36:00;;;;;;;5.20;4.18;;;;;;;;;;5052540;28;20198;-33
2023/08/26 01:38:27;;;;;;;6.25;4.45;;;;;;;;;;5049961;28;20209;-32
2023/08/26 01:40:56;;;;;;;5.68;4.05;;;;;;;;;;5052762;28;20214;-31
2023/08/26 01:43:25;;;;;;;6.15;3.90;;;;;;;;;;5053278;28;20205;-29
2023/08/26 01:45:52;;;;;;;4.28;3.88;;;;;;;;;;5053275;28;20269;-30
2023/08/26 01:48:19;;;;;;;4.90;4.27;;;;;;;;;;5053275;28;20239;-30
2023/08/26 01:50:46;;;;;;;6.10;3.87;;;;;;;;;;5052821;28;20213;-31
2023/08/26 01:53:14;;;;;;;5.23;4.50;;;;;;;;;;5057741;28;20202;-30
2023/08/26 01:55:41;;;;;;;5.93;4.53;;;;;;;;;;5052498;28;20288;-33
2023/08/26 01:58:09;;;;;;;7.35;4.20;;;;;;;;;;5051882;28;20198;-32
2023/08/26 02:00:36;;;;;;;5.18;4.25;;;;;;;;;;5050068;28;20228;-29
2023/08/26 02:03:04;;;;;;;5.95;4.07;;;;;;;;;;5052412;28;20198;-33
2023/08/26 02:05:31;;;;;;;5.60;4.40;;;;;;;;;;5052441;28;20225;-28
2023/08/26 02:07:58;;;;;;;4.53;4.07;;;;;;;;;;5049507;28;20219;-34
2023/08/26 02:10:25;;;;;;;6.20;3.83;;;;;;;;;;5052342;28;20320;-33
2023/08/26 02:12:52;;;;;;;5.17;4.03;;;;;;;;;;5052743;28;20248;-29
2023/08/26 02:15:21;;;;;;;4.97;4.28;;;;;;;;;;5054107;28;20201;-31
2023/08/26 02:17:48;;;;;;;4.13;3.83;;;;;;;;;;5052186;28;20194;-31
2023/08/26 02:20:15;;;;;;;5.13;4.00;;;;;;;;;;5051683;28;20232;-34
2023/08/26 02:22:42;;;;;;;3.50;3.20;;;;;;;;;;5048282;28;20197;-33
2023/08/26 02:25:10;;;;;;;4.93;3.85;;;;;;;;;;5051912;28;20198;-28
2023/08/26 02:27:37;;;;;;;3.67;3.35;;;;;;;;;;5051871;28;20194;-33
2023/08/26 02:30:04;;;;;;;7.43;4.00;;;;;;;;;;5047982;28;20465;-29
2023/08/26 02:32:33;;;;;;;7.15;3.28;;;;;;;;;;5051375;28;20272;-33
2023/08/26 02:35:01;;;;;;;3.30;2.97;;;;;;;;;;5050161;28;20297;-30
2023/08/26 02:37:28;;;;;;;4.53;3.33;;;;;;;;;;5051723;28;20213;-31
2023/08/26 02:39:56;;;;;;;3.87;3.33;;;;;;;;;;5055830;28;20194;-30
2023/08/26 02:42:24;;;;;;;3.92;3.35;;;;;;;;;;5055769;28;20218;-31
2023/08/26 02:44:51;;;;;;;4.18;3.70;;;;;;;;;;5055066;28;20204;-27
2023/08/26 02:47:18;;;;;;;3.92;3.40;;;;;;;;;;5054924;28;20206;-36
2023/08/26 02:49:46;;;;;;;5.55;3.58;;;;;;;;;;5055374;28;20217;-31
2023/08/26 02:52:14;;;;;;;5.63;3.78;;;;;;;;;;5052178;28;20221;-30
2023/08/26 02:54:41;;;;;;;5.15;3.53;;;;;;;;;;5048163;28;20210;-32
2023/08/26 02:57:08;;;;;;;3.93;3.63;;;;;;;;;;5055056;28;20198;-29
2023/08/26 02:59:35;;;;;;;3.57;3.10;;;;;;;;;;5054708;28;20217;-28
2023/08/26 03:02:03;;;;;;;4.40;3.30;;;;;;;;;;5055079;28;20224;-30
2023/08/26 03:04:32;;;;;;;13.13;3.72;;;;;;;;;;5055266;28;20232;-31
2023/08/26 03:07:01;;;;;;;5.50;4.07;;;;;;;;;;5053212;28;20208;-32
2023/08/26 03:09:29;;;;;;;4.53;3.63;;;;;;;;;;5054724;28;20229;-30
2023/08/26 03:11:56;;;;;;;5.50;3.60;;;;;;;;;;5055059;28;20214;-31
2023/08/26 03:14:23;;;;;;;6.70;3.30;;;;;;;;;;5052875;28;20239;-31
2023/08/26 03:16:50;;;;;;;5.65;3.50;;;;;;;;;;5054421;28;20194;-30
2023/08/26 03:19:18;;;;;;;3.80;3.50;;;;;;;;;;5054682;28;20201;-32
2023/08/26 03:21:45;;;;;;;4.63;3.65;;;;;;;;;;5055727;28;20233;-35
2023/08/26 03:24:16;;;;;;;6.78;3.90;;;;;;;;;;5055363;28;20197;-34
2023/08/26 03:26:43;;;;;;;4.63;3.87;;;;;;;;;;5048073;28;20193;-28
2023/08/26 03:29:11;;;;;;;5.47;3.80;;;;;;;;;;5045988;28;20217;-36
2023/08/26 03:31:39;;;;;;;4.20;3.47;;;;;;;;;;5049210;28;20221;-34
2023/08/26 03:34:06;;;;;;;9.53;3.73;;;;;;;;;;5051910;28;20201;-33
2023/08/26 03:36:33;;;;;;;5.23;4.13;;;;;;;;;;5051521;28;20209;-32
2023/08/26 03:39:00;;;;;;;3.67;3.30;;;;;;;;;;5054515;28;20255;-31
2023/08/26 03:41:29;;;;;;;5.20;3.70;;;;;;;;;;5054157;28;20236;-28
2023/08/26 03:43:57;;;;;;;4.20;3.80;;;;;;;;;;5054711;28;20429;-35
2023/08/26 03:46:24;;;;;;;5.43;4.37;;;;;;;;;;5060216;28;20208;-33
2023/08/26 03:48:51;;;;;;;4.17;3.77;;;;;;;;;;5053076;28;20214;-29
2023/08/26 03:51:18;;;;;;;7.43;4.88;;;;;;;;;;5053585;28;20225;-34
2023/08/26 03:53:45;;;;;;;6.20;3.90;;;;;;;;;;5054601;28;20198;-29
2023/08/26 03:56:14;;;;;;;4.22;3.83;;;;;;;;;;5055152;28;20198;-33
2023/08/26 03:58:42;;;;;;;5.90;4.00;;;;;;;;;;5055392;28;20201;-28
2023/08/26 04:01:10;;;;;;;4.03;3.60;;;;;;;;;;5055500;28;20235;-31
2023/08/26 04:03:37;;;;;;;3.90;3.50;;;;;;;;;;5055685;28;20198;-28
2023/08/26 04:06:06;;;;;;;6.50;4.15;;;;;;;;;;5055239;28;20198;-30
2023/08/26 04:08:54;;;;;;;4.47;3.70;;;;;;;;;;5057939;28;20218;-33
2023/08/26 04:11:22;;;;;;;7.13;3.87;;;;;;;;;;5053765;28;20232;-28
2023/08/26 04:13:50;;;;;;;4.40;4.00;;;;;;;;;;5054047;28;20197;-33
2023/08/26 04:16:19;;;;;;;4.17;3.77;;;;;;;;;;5051825;28;20226;-34
2023/08/26 04:18:46;;;;;;;6.30;4.37;;;;;;;;;;5053517;28;20285;-32
2023/08/26 04:21:13;;;;;;;6.27;3.70;;;;;;;;;;5053060;28;20285;-32
2023/08/26 04:23:40;;;;;;;4.37;3.97;;;;;;;;;;5053731;28;20201;-32
2023/08/26 04:26:08;;;;;;;6.23;4.47;;;;;;;;;;5053873;28;20213;-33
2023/08/26 04:28:35;;;;;;;4.77;3.90;;;;;;;;;;5053671;28;20221;-33
2023/08/26 04:31:03;;;;;;;4.33;3.93;;;;;;;;;;5052612;28;20240;-32
2023/08/26 04:33:30;;;;;;;6.43;4.33;;;;;;;;;;5052598;28;20197;-31
2023/08/26 04:35:57;;;;;;;4.20;3.80;;;;;;;;;;5054149;28;20202;-34
2023/08/26 04:38:24;;;;;;;5.43;4.53;;;;;;;;;;5051033;28;20208;-31
2023/08/26 04:40:51;;;;;;;8.27;5.50;;;;;;;;;;5052571;28;20216;-30
2023/08/26 04:43:19;;;;;;;4.33;3.47;;;;;;;;;;5051825;28;20201;-32
2023/08/26 04:45:46;;;;;;;6.80;4.23;;;;;;;;;;5051155;28;20198;-31
2023/08/26 04:48:14;;;;;;;4.73;4.10;;;;;;;;;;5054584;28;20198;-30
2023/08/26 04:50:41;;;;;;;5.10;4.60;;;;;;;;;;5053512;28;20220;-34
2023/08/26 04:53:08;;;;;;;5.32;4.82;;;;;;;;;;5051080;28;20216;-34
2023/08/26 04:55:35;;;;;;;5.90;4.10;;;;;;;;;;5053182;28;20209;-30
2023/08/26 04:58:03;;;;;;;5.38;3.70;;;;;;;;;;5052923;28;20200;-34
2023/08/26 05:00:31;;;;;;;5.47;4.27;;;;;;;;;;5052485;28;20222;-35
2023/08/26 05:02:58;;;;;;;4.68;4.25;;;;;;;;;;5054209;28;20201;-28
2023/08/26 05:08:30;;;;;;;5.67;4.47;;;;;;;;;;5052546;28;20225;-34
2023/08/26 05:10:57;;;;;;;4.70;4.20;;;;;;;;;;5054002;28;20253;-29
2023/08/26 05:13:24;;;;;;;5.53;4.67;;;;;;;;;;5054229;28;20208;-27
2023/08/26 05:15:51;;;;;;;6.90;4.13;;;;;;;;;;5052310;28;20204;-31
2023/08/26 05:18:20;;;;;;;5.37;3.97;;;;;;;;;;5050361;28;20236;-28
2023/08/26 05:20:48;;;;;;;5.97;4.50;;;;;;;;;;5053085;28;20226;-30
2023/08/26 05:23:15;;;;;;;6.57;4.20;;;;;;;;;;5052165;28;20248;-33
2023/08/26 05:25:46;;;;;;;5.33;4.30;;;;;;;;;;5053142;28;20198;-30
2023/08/26 05:28:14;;;;;;;5.60;3.87;;;;;;;;;;5052730;28;20185;-30
2023/08/26 05:30:42;;;;;;;4.70;3.87;;;;;;;;;;5053129;28;20226;-32
2023/08/26 05:33:09;;;;;;;5.30;4.10;;;;;;;;;;5050488;28;20209;-33
2023/08/26 05:35:36;;;;;;;5.80;4.23;;;;;;;;;;5053195;28;20204;-31
2023/08/26 05:38:03;;;;;;;4.53;4.03;;;;;;;;;;5052769;28;20202;-32
2023/08/26 05:40:30;;;;;;;5.70;3.83;;;;;;;;;;5050788;28;20218;-34
2023/08/26 05:42:59;;;;;;;9.90;4.20;;;;;;;;;;5051759;28;20209;-33
2023/08/26 05:45:27;;;;;;;5.73;4.53;;;;;;;;;;5050081;28;20202;-33
2023/08/26 05:47:54;;;;;;;6.73;4.27;;;;;;;;;;5048046;28;20189;-32
2023/08/26 05:50:21;;;;;;;6.97;4.53;;;;;;;;;;5045840;28;20222;-32
2023/08/26 05:52:49;;;;;;;5.50;4.33;;;;;;;;;;5050857;28;20210;-30
2023/08/26 05:55:16;;;;;;;5.63;4.17;;;;;;;;;;5052358;28;20212;-29
2023/08/26 05:57:43;;;;;;;4.37;3.90;;;;;;;;;;5051874;28;20205;-29
2023/08/26 06:00:13;;;;;;;7.63;4.33;;;;;;;;;;5054749;28;20260;-34
2023/08/26 06:02:40;;;;;;;5.50;4.17;;;;;;;;;;5051810;28;20257;-31
2023/08/26 06:05:07;;;;;;;4.17;3.83;;;;;;;;;;5052726;28;20197;-29
2023/08/26 06:07:34;;;;;;;4.57;4.18;;;;;;;;;;5056461;28;20205;-30
2023/08/26 06:10:01;;;;;;;4.07;3.67;;;;;;;;;;5052264;28;20217;-32
2023/08/26 06:12:29;;;;;;;4.97;3.87;;;;;;;;;;5055179;28;20209;-31
2023/08/26 06:14:56;;;;;;;4.57;3.80;;;;;;;;;;5056812;28;20205;-35
2023/08/26 06:17:24;;;;;;;6.53;4.40;;;;;;;;;;5058695;28;20200;-32
2023/08/26 06:19:51;;;;;;;5.23;4.03;;;;;;;;;;5053735;28;20202;-31
2023/08/26 06:22:18;;;;;;;5.47;4.00;;;;;;;;;;5055506;28;20197;-33
2023/08/26 06:24:46;;;;;;;5.13;3.87;;;;;;;;;;5053489;28;20202;-27
2023/08/26 06:27:13;;;;;;;7.90;5.00;;;;;;;;;;5055918;28;20244;-29
2023/08/26 06:29:45;;;;;;;4.80;4.25;;;;;;;;;;5055788;28;20214;-30
2023/08/26 06:32:12;;;;;;;5.50;4.57;;;;;;;;;;5060964;28;20225;-32
2023/08/26 06:34:41;;;;;;;9.25;4.40;;;;;;;;;;5055967;28;20200;-29
2023/08/26 06:37:08;;;;;;;10.17;4.53;;;;;;;;;;5046806;28;20201;-33
2023/08/26 06:39:41;;;;;;;4.63;3.77;;;;;;;;;;5055503;28;20200;-31
2023/08/26 06:42:25;;;;;;;4.10;3.53;;;;;;;;;;5054090;28;20229;-32
2023/08/26 06:44:54;;;;;;;5.53;4.00;;;;;;;;;;5055703;28;20233;-33
2023/08/26 06:47:21;;;;;;;6.47;3.77;;;;;;;;;;5055382;28;20256;-28
2023/08/26 06:49:50;;;;;;;7.53;3.70;;;;;;;;;;5053915;28;20218;-31
2023/08/26 06:52:17;;;;;;;4.57;3.87;;;;;;;;;;5052766;28;20214;-31
2023/08/26 06:54:45;;;;;;;4.00;3.60;;;;;;;;;;5051814;28;20201;-31
2023/08/26 06:57:25;;;;;;;5.53;3.90;;;;;;;;;;5054950;28;20196;-32
2023/08/26 07:00:02;;;;;;;6.60;3.77;;;;;;;;;;5035638;28;20214;-29
2023/08/26 07:02:29;;;;;;;4.97;4.47;;;;;;;;;;5049878;28;20241;-30
2023/08/26 07:04:58;;;;;;;5.87;4.20;;;;;;;;;;5053977;28;20201;-31
2023/08/26 07:07:25;;;;;;;6.50;4.10;;;;;;;;;;5057681;28;20216;-30
2023/08/26 07:09:52;;;;;;;4.50;3.70;;;;;;;;;;5055046;28;20224;-28
2023/08/26 07:12:20;;;;;;;3.43;3.13;;;;;;;;;;5055562;28;20208;-28
2023/08/26 07:17:23;;;;;;;5.43;3.17;;;;;;;;;;5061763;22;20240;-30
2023/08/26 07:19:50;;;;;;;4.53;3.23;;;;;;;;;;5044149;28;20194;-31
2023/08/26 07:22:18;;;;;;;4.03;2.80;;;;;;;;;;5025543;28;20210;-32
2023/08/26 07:27:23;;;;;;;4.70;3.00;;;;;;;;;;5190775;22;20326;-36
2023/08/26 07:29:50;;;;;;;5.10;2.77;;;;;;;;;;5062689;28;20263;-36
2023/08/26 07:32:17;;;;;;;7.27;3.03;;;;;;;;;;5034567;28;20226;-32
2023/08/26 07:34:44;;;;;;;5.63;3.13;;;;;;;;;;5040311;28;20204;-38
2023/08/26 07:37:11;;;;;;;3.97;2.20;;;;;;;;;;5041023;28;20217;-35
2023/08/26 07:39:40;;;;;;;3.83;2.60;;;;;;;;;;5033580;28;20202;-35
2023/08/26 07:42:07;;;;;;;4.00;2.47;;;;;;;;;;5038488;28;20226;-38
2023/08/26 07:44:34;;;;;;;8.15;3.40;;;;;;;;;;5041314;28;20205;-33
2023/08/26 07:47:02;;;;;;;3.30;2.53;;;;;;;;;;5047749;28;20198;-39
2023/08/26 07:49:30;;;;;;;5.00;2.30;;;;;;;;;;5035887;28;20285;-36
2023/08/26 07:51:57;;;;;;;4.88;2.83;;;;;;;;;;5039478;28;20308;-35
2023/08/26 07:54:24;;;;;;;4.97;2.93;;;;;;;;;;5042374;28;20201;-39
2023/08/26 07:56:52;;;;;;;5.78;3.17;;;;;;;;;;5046750;28;20202;-39
2023/08/26 07:59:19;;;;;;;5.20;2.70;;;;;;;;;;5053107;28;20224;-34
2023/08/26 08:01:53;;;;;;;4.20;2.90;;;;;;;;;;5044758;28;20253;-38
2023/08/26 08:04:20;;;;;;;3.50;3.10;;;;;;;;;;5050717;28;20189;-39
2023/08/26 08:06:47;;;;;;;7.10;2.97;;;;;;;;;;5037099;28;20300;-35
2023/08/26 08:09:14;;;;;;;3.25;2.70;;;;;;;;;;5045082;28;20206;-38
2023/08/26 08:11:42;;;;;;;4.70;2.83;;;;;;;;;;5054253;28;20241;-37
2023/08/26 08:14:10;;;;;;;3.65;2.72;;;;;;;;;;5054360;28;20224;-36
2023/08/26 08:16:37;;;;;;;3.43;2.53;;;;;;;;;;5049446;28;20233;-38
2023/08/26 08:19:04;;;;;;;4.55;3.03;;;;;;;;;;5045154;28;20212;-38
2023/08/26 08:21:32;;;;;;;5.10;2.95;;;;;;;;;;5043030;28;20241;-36
2023/08/26 08:24:00;;;;;;;3.38;2.60;;;;;;;;;;5039667;28;20301;-37
2023/08/26 08:26:28;;;;;;;4.97;2.40;;;;;;;;;;5041128;28;20207;-41
2023/08/26 08:29:03;;;;;;;4.07;2.75;;;;;;;;;;5044881;28;20198;-38
2023/08/26 08:31:32;;;;;;;4.53;2.70;;;;;;;;;;5042795;28;20291;-35
2023/08/26 08:33:59;;;;;;;5.38;2.70;;;;;;;;;;5048981;28;20228;-46
2023/08/26 08:36:26;;;;;;;3.65;2.40;;;;;;;;;;5034093;28;20636;-43
2023/08/26 08:38:53;;;;;;;3.38;2.50;;;;;;;;;;5036755;28;20204;-43
2023/08/26 08:41:20;;;;;;;5.18;2.75;;;;;;;;;;5035237;28;20571;-45
2023/08/26 08:43:49;;;;;;;4.35;2.75;;;;;;;;;;5037109;28;20209;-41
2023/08/26 08:46:17;;;;;;;4.90;2.70;;;;;;;;;;5047007;28;20237;-45
2023/08/26 08:48:45;;;;;;;5.68;3.15;;;;;;;;;;5052602;28;20297;-46
2023/08/26 08:51:13;;;;;;;4.90;2.65;;;;;;;;;;5040426;28;20326;-43
2023/08/26 08:53:45;;;;;;;2.90;2.33;;;;;;;;;;5049027;28;20234;-45
2023/08/26 08:56:13;;;;;;;3.70;2.67;;;;;;;;;;5039945;28;20225;-41
2023/08/26 08:58:40;;;;;;;5.32;2.65;;;;;;;;;;5033376;28;20293;-44
2023/08/26 09:01:08;;;;;;;5.40;2.45;;;;;;;;;;5035208;28;20218;-46
2023/08/26 09:03:35;;;;;;;3.30;2.40;;;;;;;;;;5030900;28;20203;-43
2023/08/26 09:06:04;;;;;;;4.13;2.40;;;;;;;;;;5045159;28;20216;-47
2023/08/26 09:08:32;;;;;;;3.95;2.40;;;;;;;;;;5033190;28;20205;-47
2023/08/26 09:10:59;;;;;;;3.88;2.40;;;;;;;;;;5033908;28;20248;-47
2023/08/26 09:13:26;;;;;;;4.30;2.42;;;;;;;;;;5048701;28;20206;-40
2023/08/26 09:18:57;;;;;;;4.32;2.80;;;;;;;;;;5033432;28;20219;-47
2023/08/26 09:21:27;;;;;;;4.25;2.28;;;;;;;;;;5032679;28;20222;-44
2023/08/26 09:23:55;;;;;;;5.18;2.70;;;;;;;;;;5042870;28;20206;-43
2023/08/26 09:26:24;;;;;;;4.90;2.53;;;;;;;;;;5049073;28;20212;-47
2023/08/26 09:28:52;;;;;;;4.03;2.47;;;;;;;;;;5050285;28;20211;-43
2023/08/26 09:31:19;;;;;;;4.32;2.63;;;;;;;;;;5041661;28;20227;-46
2023/08/26 09:33:50;;;;;;;5.00;2.58;;;;;;;;;;5050431;28;20197;-42
2023/08/26 09:36:17;;;;;;;3.92;2.42;;;;;;;;;;5039612;28;20247;-41
2023/08/26 09:38:47;;;;;;;4.50;2.60;;;;;;;;;;5037443;28;20285;-41
2023/08/26 09:41:19;;;;;;;4.63;2.42;;;;;;;;;;5039143;28;20250;-45
2023/08/26 09:43:46;;;;;;;2.85;2.38;;;;;;;;;;5051328;28;20190;-43
2023/08/26 09:46:18;;;;;;;5.53;2.83;;;;;;;;;;5044766;28;20201;-46
2023/08/26 09:48:46;;;;;;;2.85;2.22;;;;;;;;;;5052680;28;20193;-39
2023/08/26 09:51:13;;;;;;;4.20;2.53;;;;;;;;;;5039258;28;20218;-46
2023/08/26 09:53:40;;;;;;;5.35;2.80;;;;;;;;;;5049325;28;20210;-45
2023/08/26 09:56:08;;;;;;;3.03;2.60;;;;;;;;;;5045917;28;20213;-41
2023/08/26 09:58:36;;;;;;;4.25;2.58;;;;;;;;;;5048278;28;20202;-44
2023/08/26 10:01:04;;;;;;;3.53;2.20;;;;;;;;;;5050830;28;20224;-46
2023/08/26 10:03:32;;;;;;;2.70;2.30;;;;;;;;;;5054023;28;20244;-46
2023/08/26 10:05:59;;;;;;;4.97;2.97;;;;;;;;;;5048012;28;20216;-42
2023/08/26 10:08:28;;;;;;;5.03;2.58;;;;;;;;;;5043405;28;20297;-40
2023/08/26 10:10:55;;;;;;;4.47;2.65;;;;;;;;;;5050622;28;20221;-41
2023/08/26 10:13:27;;;;;;;4.57;2.63;;;;;;;;;;5037895;28;20256;-44
2023/08/26 10:15:56;;;;;;;3.20;2.80;;;;;;;;;;5049592;28;20198;-45
2023/08/26 10:18:28;;;;;;;3.53;2.72;;;;;;;;;;5036745;28;20198;-46
2023/08/26 10:21:02;;;;;;;6.22;4.72;;;;;;;;;;5044653;28;20259;-45
2023/08/26 10:23:29;;;;;;;8.05;3.60;;;;;;;;;;5046762;28;20210;-44
2023/08/26 10:25:57;;;;;;;3.35;2.50;;;;;;;;;;5042909;28;20207;-46
2023/08/26 10:28:26;;;;;;;6.43;3.17;;;;;;;;;;5037532;28;20385;-42
2023/08/26 10:30:54;;;;;;;3.17;2.53;;;;;;;;;;5041267;28;20218;-42
2023/08/26 10:33:22;;;;;;;4.75;2.75;;;;;;;;;;5043816;28;20211;-44
2023/08/26 10:35:59;;;;;;;5.63;2.83;;;;;;;;;;5055717;28;20210;-42
2023/08/26 10:38:26;;;;;;;5.90;2.90;;;;;;;;;;5047797;28;20244;-41
2023/08/26 10:41:09;;;;;;;6.55;3.03;;;;;;;;;;5056671;28;20293;-45
2023/08/26 10:43:37;;;;;;;2.90;2.60;;;;;;;;;;5054696;28;20206;-45
2023/08/26 10:46:04;;;;;;;3.53;2.67;;;;;;;;;;5052865;28;20225;-45
2023/08/26 10:48:51;;;;;;;3.38;2.40;;;;;;;;;;5051616;28;20202;-41
2023/08/26 10:51:19;;;;;;;4.78;3.47;;;;;;;;;;5032992;28;20223;-47
2023/08/26 10:53:46;;;;;;;3.33;3.00;;;;;;;;;;5038281;28;20290;-42
2023/08/26 10:56:14;;;;;;;2.90;2.55;;;;;;;;;;5042044;28;20203;-38
2023/08/26 10:58:46;;;;;;;5.20;2.90;;;;;;;;;;5053238;28;20229;-45
2023/08/26 11:01:13;;;;;;;3.67;2.90;;;;;;;;;;5048699;28;20222;-42
2023/08/26 11:03:44;;;;;;;4.43;2.30;;;;;;;;;;5040568;28;20226;-43
2023/08/26 11:06:13;;;;;;;4.03;2.30;;;;;;;;;;5033127;28;20202;-43
2023/08/26 11:08:40;;;;;;;5.63;2.92;;;;;;;;;;5046332;28;20235;-45
2023/08/26 11:11:12;;;;;;;2.65;2.35;;;;;;;;;;5036933;28;20223;-45
2023/08/26 11:13:41;;;;;;;4.13;2.58;;;;;;;;;;5034099;28;20188;-44
2023/08/26 11:16:09;;;;;;;8.60;2.70;;;;;;;;;;5040460;28;20202;-44
2023/08/26 11:18:37;;;;;;;3.53;2.72;;;;;;;;;;5051455;28;20194;-44
2023/08/26 11:21:04;;;;;;;6.63;2.70;;;;;;;;;;5054391;28;20219;-44
2023/08/26 11:23:32;;;;;;;4.22;2.50;;;;;;;;;;5041883;28;20211;-44
2023/08/26 11:25:59;;;;;;;4.45;2.45;;;;;;;;;;5041207;28;20239;-45
2023/08/26 11:28:27;;;;;;;5.65;3.38;;;;;;;;;;5032821;28;20194;-45
2023/08/26 11:30:55;;;;;;;5.00;3.05;;;;;;;;;;5031243;28;20224;-43
2023/08/26 11:33:26;;;;;;;5.03;3.25;;;;;;;;;;5041756;28;20203;-43
2023/08/26 11:35:53;;;;;;;3.55;2.85;;;;;;;;;;5043899;28;20360;-46
2023/08/26 11:38:22;;;;;;;5.68;2.80;;;;;;;;;;5040859;28;20202;-45
2023/08/26 11:40:49;;;;;;;5.90;3.17;;;;;;;;;;5046938;28;20211;-44
2023/08/26 11:43:17;;;;;;;5.90;3.22;;;;;;;;;;5050482;28;20202;-39
2023/08/26 11:45:46;;;;;;;2.80;2.53;;;;;;;;;;5052497;28;20207;-41
2023/08/26 11:48:15;;;;;;;3.33;2.60;;;;;;;;;;5034535;28;20206;-42
2023/08/26 11:50:46;;;;;;;3.15;2.50;;;;;;;;;;5046860;28;20227;-42
2023/08/26 11:53:13;;;;;;;4.45;2.88;;;;;;;;;;5031319;28;20303;-46
2023/08/26 11:55:40;;;;;;;4.80;3.28;;;;;;;;;;5037645;28;20223;-45
2023/08/26 11:58:07;;;;;;;3.53;2.92;;;;;;;;;;5036383;28;20199;-41
2023/08/26 12:00:34;;;;;;;4.07;3.15;;;;;;;;;;5032958;28;20230;-45
2023/08/26 12:03:03;;;;;;;5.05;2.60;;;;;;;;;;5032104;28;20203;-46
2023/08/26 12:05:41;;;;;;;5.68;3.00;;;;;;;;;;5051440;28;20202;-42
2023/08/26 12:08:13;;;;;;;3.78;2.70;;;;;;;;;;5048415;28;20233;-43
2023/08/26 12:10:40;;;;;;;6.97;3.13;;;;;;;;;;5039190;28;20229;-42
2023/08/26 12:13:08;;;;;;;5.68;2.92;;;;;;;;;;5048587;28;20234;-41
2023/08/26 12:15:35;;;;;;;4.88;3.10;;;;;;;;;;5046921;28;20290;-43
2023/08/26 12:18:02;;;;;;;6.15;3.22;;;;;;;;;;5035965;28;20195;-44
2023/08/26 12:20:30;;;;;;;7.22;3.13;;;;;;;;;;5043289;28;20230;-36
2023/08/26 12:22:57;;;;;;;5.57;3.10;;;;;;;;;;5047331;28;20267;-39
2023/08/26 12:25:27;;;;;;;9.02;3.35;;;;;;;;;;5041007;28;20217;-40
2023/08/26 12:27:54;;;;;;;4.60;3.25;;;;;;;;;;5046336;28;20205;-44
2023/08/26 12:30:21;;;;;;;3.58;2.78;;;;;;;;;;5046437;28;20236;-36
2023/08/26 12:32:49;;;;;;;5.00;3.67;;;;;;;;;;5046037;28;20218;-37
2023/08/26 12:35:16;;;;;;;6.90;3.45;;;;;;;;;;5031923;28;20203;-36
2023/08/26 12:37:43;;;;;;;5.45;3.67;;;;;;;;;;5038089;28;20216;-36
2023/08/26 12:40:13;;;;;;;7.15;3.60;;;;;;;;;;5042223;28;20210;-38
2023/08/26 12:42:42;;;;;;;9.70;3.42;;;;;;;;;;5052021;28;20201;-33
2023/08/26 12:45:10;;;;;;;7.82;4.03;;;;;;;;;;5051915;28;20202;-43
2023/08/26 12:47:37;;;;;;;5.40;3.60;;;;;;;;;;5040952;28;20206;-43
2023/08/26 12:50:04;;;;;;;5.97;3.63;;;;;;;;;;5039710;28;20210;-43
2023/08/26 12:52:31;;;;;;;4.80;2.95;;;;;;;;;;5046110;28;20288;-42
2023/08/26 12:54:59;;;;;;;5.28;3.40;;;;;;;;;;5036307;28;20213;-43
2023/08/26 12:57:26;;;;;;;7.35;3.20;;;;;;;;;;5043471;28;20197;-41
2023/08/26 12:59:54;;;;;;;3.95;3.58;;;;;;;;;;5046034;28;20612;-44
2023/08/26 13:02:21;;;;;;;6.63;3.50;;;;;;;;;;5033454;28;20204;-44
2023/08/26 13:04:48;;;;;;;4.88;3.40;;;;;;;;;;5037891;28;20328;-39
2023/08/26 13:07:16;;;;;;;4.72;3.60;;;;;;;;;;5035557;28;20476;-42
2023/08/26 13:09:43;;;;;;;5.85;3.80;;;;;;;;;;5044837;28;20198;-40
2023/08/26 13:12:10;;;;;;;3.85;3.30;;;;;;;;;;5050803;28;20224;-46
2023/08/26 13:14:37;;;;;;;6.18;3.55;;;;;;;;;;5051563;28;20207;-41
2023/08/26 13:17:06;;;;;;;3.33;3.03;;;;;;;;;;5040271;28;20658;-43
2023/08/26 13:19:33;;;;;;;4.75;3.00;;;;;;;;;;5034737;28;20816;-42
2023/08/26 13:22:00;;;;;;;4.23;2.90;;;;;;;;;;5048117;28;20221;-41
2023/08/26 13:24:27;;;;;;;5.15;3.45;;;;;;;;;;5053766;28;20297;-44
2023/08/26 13:26:55;;;;;;;5.35;2.90;;;;;;;;;;5138948;22;20276;-36
2023/08/26 13:29:22;;;;;;;7.07;3.60;;;;;;;;;;5023803;28;20230;-30
2023/08/26 13:31:49;;;;;;;4.30;3.10;;;;;;;;;;5025489;28;20254;-32
2023/08/26 13:34:18;;;;;;;6.27;3.07;;;;;;;;;;5029682;28;20202;-30
2023/08/26 13:36:46;;;;;;;3.60;3.17;;;;;;;;;;5013467;28;20203;-28
2023/08/26 13:39:13;;;;;;;7.40;3.45;;;;;;;;;;5020357;28;20210;-30
2023/08/26 13:41:40;;;;;;;4.50;3.05;;;;;;;;;;5021521;28;20222;-29
2023/08/26 13:44:08;;;;;;;5.37;2.70;;;;;;;;;;5013559;28;20207;-31
2023/08/26 13:46:35;;;;;;;4.57;2.07;;;;;;;;;;5018221;28;20293;-30
2023/08/26 13:49:02;;;;;;;5.23;2.83;;;;;;;;;;5020893;28;20202;-35
2023/08/26 13:51:31;;;;;;;5.22;2.97;;;;;;;;;;5022053;28;20218;-32
2023/08/26 13:57:20;;;;;;;3.17;2.60;;;;;;;;;;5029665;28;20292;-30
2023/08/26 13:59:47;;;;;;;2.50;2.30;;;;;;;;;;5033291;28;20194;-30
2023/08/26 14:02:14;;;;;;;4.77;2.70;;;;;;;;;;5033238;28;20214;-30
2023/08/26 14:04:41;;;;;;;3.03;2.30;;;;;;;;;;5033443;28;20631;-34
2023/08/26 14:07:10;;;;;;;3.40;2.40;;;;;;;;;;5026605;28;20217;-35
2023/08/26 14:09:37;;;;;;;4.43;3.00;;;;;;;;;;5026600;28;20549;-31
2023/08/26 14:12:04;;;;;;;3.33;2.47;;;;;;;;;;5016345;28;20229;-32
2023/08/26 14:14:31;;;;;;;3.83;2.80;;;;;;;;;;5012881;28;20191;-32
2023/08/26 14:16:58;;;;;;;7.20;2.43;;;;;;;;;;5019345;28;20297;-27
2023/08/26 14:19:26;;;;;;;3.10;2.47;;;;;;;;;;5023507;28;20716;-31
2023/08/26 14:21:53;;;;;;;3.90;2.30;;;;;;;;;;5016599;28;20317;-28
2023/08/26 14:24:21;;;;;;;2.37;2.10;;;;;;;;;;5018193;28;20199;-29
2023/08/26 14:26:49;;;;;;;3.20;2.00;;;;;;;;;;5028477;28;20254;-30
2023/08/26 14:29:16;;;;;;;3.38;2.70;;;;;;;;;;5018485;28;20214;-31
2023/08/26 14:31:43;;;;;;;3.42;3.13;;;;;;;;;;5025560;28;20225;-32
2023/08/26 14:34:10;;;;;;;4.67;4.27;;;;;;;;;;5026810;28;20198;-31
2023/08/26 14:36:39;;;;;;;6.50;5.03;;;;;;;;;;5030065;28;20214;-31
2023/08/26 14:39:06;;;;;;;6.82;6.43;;;;;;;;;;5024738;28;20618;-31
2023/08/26 14:41:35;;;;;;;3.80;3.50;;;;;;;;;;5021637;28;20230;-32
2023/08/26 14:44:03;;;;;;;4.20;3.80;;;;;;;;;;5021723;28;20202;-33
2023/08/26 14:46:30;;;;;;;2.90;2.47;;;;;;;;;;5034075;28;20209;-32
2023/08/26 14:48:57;;;;;;;2.47;2.10;;;;;;;;;;5035628;28;20208;-33
2023/08/26 14:51:26;;;;;;;2.63;2.13;;;;;;;;;;5019578;28;20583;-30
2023/08/26 14:53:53;;;;;;;2.77;2.10;;;;;;;;;;5020370;28;20568;-29
2023/08/26 14:56:20;;;;;;;2.93;1.93;;;;;;;;;;5031365;28;20281;-29
2023/08/26 14:58:49;;;;;;;4.33;2.13;;;;;;;;;;5036414;28;20213;-31
2023/08/26 15:01:16;;;;;;;2.00;1.90;;;;;;;;;;5027358;28;20673;-27
2023/08/26 15:03:43;;;;;;;2.60;2.23;;;;;;;;;;5036695;28;20253;-30
2023/08/26 15:06:10;;;;;;;3.10;2.23;;;;;;;;;;5033580;28;20202;-30